Pagrindinis puslapis
METAR-TAF:

METAR-TAF

Oro uostai :

Balikpapanas, Indonezija

platuma: 01-16-06S, ilguma: 116-53-40E, Aukštis: 4 m

Dabartinis oras

Ataskaita buvo paskelbta 9 valandos ir 24 minutes, ne 10:30 UTC
Ramus vėjas
Temperatūra 27°C
Drėgmė 89%
Slėgis 1006 hPa
Matomumas: 9000 m
Mažai debesys ne aukštis 2000 ft

METAR: WALL 251030Z 00000KT 9000 FEW020 27/25 Q1006

Laikas: 02:54 (19:54 UTC)

Prognozė

Ataskaita buvo paskelbta 8 valandos ir 54 minutes, ne 11:00 UTC
Prognozė galioja nuo 25 metu 12 UTC su 26 metu 18 UTC
Vėjas kt iš Šiaurės
Matomumas: 9000 m
Išsisklaidę debesys ne aukštis 2000 ft
Laikinai
nuo 26 metu 03 UTC su 26 metu 06 UTC
Matomumas: 4000 m
Mažai debesys ne aukštis 1800 ft, Liūtiniai kamuoliniai debesys.
perkūnija, lietus

TAF: WALL 251100Z 2512/2618 00000KT 9000 SCT020 TEMPO 2603/2606 4000 TSRA FEW018CB

Orai ataskaitas ir orų prognozės (METAR, TAF).

turimą stotys yra geltonos ir raudonos taškus žemėlapyje.

Perkelti pele per norėdami pamatyti stoties vardą.

Tada spustelėkite, norėdami matyti oro stebėjimo ir prognozės.

Norėdami pakeisti žemėlapį: spustelėkite ant žalios mygtukų su juodo kryžiaus žemyn,; žalią mygtuką su brūkšneliu, jei norite nutolinti; arba žalių rodyklių gretimoms žemėlapius.


METAR-TAF: